Time;durP1;ratioP1;P1;durP2;ratioP2;P2;SDS_P1;SDS_P2;PMS_P1;PMS_P2;Temp;Humidity;BMP_temperature;BMP_pressure;BME280_temperature;BME280_humidity;BME280_pressure;Samples;Min_cycle;Max_cycle;Signal;HPM_P1;HPM_P2
2024/03/22 00:00:38;;;;;;;8.40;7.40;;;15.00;98.60;;;;;;5014306;28;20212;-68
2024/03/22 00:03:05;;;;;;;8.50;7.20;;;14.90;98.90;;;;;;5014640;28;20955;-69
2024/03/22 00:05:30;;;;;;;10.77;7.50;;;14.90;99.20;;;;;;5012499;28;20225;-68
2024/03/22 00:07:56;;;;;;;9.50;7.60;;;14.90;99.30;;;;;;5013121;28;20470;-68
2024/03/22 00:10:21;;;;;;;9.87;7.00;;;14.80;99.70;;;;;;5010901;28;20307;-68
2024/03/22 00:12:48;;;;;;;7.80;7.00;;;14.80;99.70;;;;;;5010209;28;20197;-69
2024/03/22 00:15:14;;;;;;;9.77;6.70;;;14.80;99.90;;;;;;5013865;28;20231;-69
2024/03/22 00:17:39;;;;;;;7.90;7.10;;;14.70;99.90;;;;;;5025204;28;20430;-69
2024/03/22 00:20:06;;;;;;;9.03;6.50;;;14.70;99.90;;;;;;5013751;28;20205;-67
2024/03/22 00:22:32;;;;;;;10.57;7.53;;;14.70;99.90;;;;;;5013483;28;20188;-67
2024/03/22 00:24:57;;;;;;;11.40;7.77;;;14.70;99.90;;;;;;5011550;28;20582;-67
2024/03/22 00:27:23;;;;;;;9.93;7.60;;;14.70;99.90;;;;;;5020990;28;20188;-67
2024/03/22 00:29:48;;;;;;;9.17;7.40;;;14.70;99.90;;;;;;5013337;28;20216;-67
2024/03/22 00:32:14;;;;;;;11.00;8.10;;;14.70;99.90;;;;;;5012350;28;20671;-67
2024/03/22 00:34:40;;;;;;;9.40;7.47;;;14.70;99.90;;;;;;5011241;28;20315;-67
2024/03/22 00:37:05;;;;;;;10.20;7.73;;;14.60;99.90;;;;;;5009351;28;20207;-67
2024/03/22 00:39:31;;;;;;;14.60;8.40;;;14.60;99.90;;;;;;5015181;28;20667;-67
2024/03/22 00:41:56;;;;;;;8.70;7.63;;;14.60;99.90;;;;;;5017866;28;20561;-67
2024/03/22 00:44:22;;;;;;;8.50;7.70;;;14.50;99.90;;;;;;5015835;28;20197;-66
2024/03/22 00:46:47;;;;;;;12.67;8.03;;;14.50;99.90;;;;;;5015160;28;20187;-67
2024/03/22 00:49:13;;;;;;;8.73;7.83;;;14.50;99.90;;;;;;5012692;28;20188;-68
2024/03/22 00:51:39;;;;;;;9.63;8.07;;;14.50;99.90;;;;;;5012088;28;20181;-68
2024/03/22 00:54:04;;;;;;;8.27;7.17;;;14.50;99.90;;;;;;5016033;28;20779;-67
2024/03/22 00:56:30;;;;;;;9.60;7.70;;;14.50;99.90;;;;;;5020225;28;20255;-67
2024/03/22 00:58:55;;;;;;;10.57;7.93;;;14.50;99.90;;;;;;5018704;28;20174;-67
2024/03/22 01:01:21;;;;;;;10.77;8.50;;;14.40;99.90;;;;;;5014050;28;20208;-67
2024/03/22 01:03:46;;;;;;;10.00;8.10;;;14.40;99.90;;;;;;5017665;28;20255;-67
2024/03/22 01:06:12;;;;;;;8.77;7.87;;;14.20;99.90;;;;;;5015284;28;20276;-67
2024/03/22 01:08:38;;;;;;;11.93;8.20;;;14.20;99.90;;;;;;5018563;28;20192;-67
2024/03/22 01:11:03;;;;;;;8.90;7.50;;;14.30;99.90;;;;;;5016421;28;20652;-67
2024/03/22 01:13:29;;;;;;;11.13;7.60;;;14.30;99.90;;;;;;5018171;28;20180;-67
2024/03/22 01:15:55;;;;;;;10.83;8.80;;;14.30;99.90;;;;;;5021731;28;20212;-67
2024/03/22 01:18:20;;;;;;;9.80;8.57;;;14.20;99.90;;;;;;5011095;28;20181;-67
2024/03/22 01:20:46;;;;;;;9.00;8.10;;;14.20;99.90;;;;;;5016681;28;20463;-67
2024/03/22 01:23:11;;;;;;;8.93;8.03;;;14.20;99.90;;;;;;5019162;28;20644;-67
2024/03/22 01:25:37;;;;;;;8.20;7.10;;;14.20;99.90;;;;;;5014666;28;20624;-67
2024/03/22 01:28:04;;;;;;;10.70;8.90;;;14.10;99.90;;;;;;5016743;28;20188;-68
2024/03/22 01:30:29;;;;;;;8.67;7.77;;;14.10;99.90;;;;;;5015316;28;20324;-68
2024/03/22 01:32:56;;;;;;;10.73;8.00;;;14.10;99.90;;;;;;5015646;28;20981;-68
2024/03/22 01:35:21;;;;;;;10.73;8.47;;;14.10;99.90;;;;;;5014078;28;20212;-68
2024/03/22 01:37:47;;;;;;;11.40;7.50;;;14.00;99.90;;;;;;5014169;28;20821;-68
2024/03/22 01:40:13;;;;;;;11.73;7.90;;;14.00;99.90;;;;;;5012183;28;20483;-68
2024/03/22 01:42:39;;;;;;;9.47;7.90;;;14.00;99.90;;;;;;5008982;28;20192;-67
2024/03/22 01:45:05;;;;;;;10.10;8.03;;;14.00;99.90;;;;;;5010866;28;20243;-67
2024/03/22 01:47:31;;;;;;;10.73;9.63;;;13.90;99.90;;;;;;5015517;28;20264;-67
2024/03/22 01:49:57;;;;;;;9.53;7.87;;;13.90;99.90;;;;;;5012901;28;21208;-67
2024/03/22 01:52:23;;;;;;;11.60;10.40;;;13.90;99.90;;;;;;5014573;28;20264;-67
2024/03/22 01:54:49;;;;;;;11.33;9.10;;;13.90;99.90;;;;;;5016320;28;20535;-67
2024/03/22 01:57:15;;;;;;;10.20;9.00;;;13.80;99.90;;;;;;5014020;28;20424;-67
2024/03/22 01:59:41;;;;;;;10.73;8.97;;;13.80;99.90;;;;;;5013019;28;20466;-67
2024/03/22 02:02:07;;;;;;;12.13;9.13;;;13.80;99.90;;;;;;5007590;28;20222;-67
2024/03/22 02:04:33;;;;;;;9.80;8.57;;;13.70;99.90;;;;;;5013343;28;20948;-67
2024/03/22 02:06:58;;;;;;;11.40;8.80;;;13.70;99.90;;;;;;5009267;28;20243;-67
2024/03/22 02:09:24;;;;;;;13.93;8.93;;;13.70;99.90;;;;;;5009265;28;20181;-67
2024/03/22 02:11:50;;;;;;;9.97;8.23;;;13.70;99.90;;;;;;5015647;28;20272;-67
2024/03/22 02:14:16;;;;;;;15.57;9.30;;;13.70;99.90;;;;;;5011410;28;20482;-67
2024/03/22 02:16:42;;;;;;;14.17;8.40;;;13.70;99.90;;;;;;5009260;28;20458;-68
2024/03/22 02:19:08;;;;;;;11.10;8.53;;;13.60;99.90;;;;;;5011536;28;20189;-67
2024/03/22 02:21:34;;;;;;;10.60;8.60;;;13.60;99.90;;;;;;5012834;28;20437;-67
2024/03/22 02:24:00;;;;;;;8.57;7.67;;;13.70;99.90;;;;;;5012847;28;21601;-67
2024/03/22 02:26:25;;;;;;;11.60;7.93;;;13.60;99.90;;;;;;5016964;28;20203;-67
2024/03/22 02:28:51;;;;;;;9.57;7.90;;;13.60;99.90;;;;;;5014073;28;20272;-67
2024/03/22 02:31:16;;;;;;;14.83;8.57;;;13.50;99.90;;;;;;5014660;28;20188;-67
2024/03/22 02:33:42;;;;;;;10.40;8.53;;;13.50;99.90;;;;;;5014434;28;20798;-67
2024/03/22 02:36:09;;;;;;;11.40;8.60;;;13.50;99.90;;;;;;5010483;28;20196;-67
2024/03/22 02:38:34;;;;;;;10.87;7.37;;;13.50;99.90;;;;;;5008396;28;20762;-67
2024/03/22 02:41:00;;;;;;;10.60;7.90;;;13.60;99.90;;;;;;5015873;28;20470;-67
2024/03/22 02:43:26;;;;;;;10.37;8.73;;;13.40;99.90;;;;;;5013098;28;20335;-67
2024/03/22 02:45:51;;;;;;;11.77;8.13;;;13.50;99.90;;;;;;5017847;28;20196;-67
2024/03/22 02:48:17;;;;;;;11.90;8.33;;;13.50;99.90;;;;;;5011570;28;20184;-67
2024/03/22 02:50:42;;;;;;;9.03;8.10;;;13.50;99.90;;;;;;5016634;28;20181;-67
2024/03/22 02:53:08;;;;;;;8.70;7.70;;;13.50;99.90;;;;;;5012781;28;20216;-67
2024/03/22 02:55:38;;;;;;;10.57;8.67;;;13.50;99.90;;;;;;5015459;28;20215;-68
2024/03/22 02:58:05;;;;;;;9.77;8.30;;;13.50;99.90;;;;;;5007840;28;20220;-68
2024/03/22 03:00:31;;;;;;;9.00;7.90;;;13.50;99.90;;;;;;5013851;28;20585;-67
2024/03/22 03:02:56;;;;;;;10.50;7.60;;;13.50;99.90;;;;;;5021820;28;20855;-67
2024/03/22 03:05:25;;;;;;;10.67;8.10;;;13.40;99.90;;;;;;5016329;28;20524;-66
2024/03/22 03:07:50;;;;;;;9.57;8.33;;;13.30;99.90;;;;;;5013142;28;20264;-67
2024/03/22 03:10:16;;;;;;;10.80;7.47;;;13.20;99.90;;;;;;5012089;28;20560;-67
2024/03/22 03:12:42;;;;;;;11.57;7.67;;;13.20;99.90;;;;;;5010710;28;20559;-66
2024/03/22 03:15:08;;;;;;;10.70;7.67;;;13.20;99.90;;;;;;5011214;28;20448;-66
2024/03/22 03:17:33;;;;;;;8.60;7.17;;;13.20;99.90;;;;;;5012195;28;20549;-67
2024/03/22 03:19:59;;;;;;;11.37;8.60;;;13.10;99.90;;;;;;5016455;28;20212;-66
2024/03/22 03:22:25;;;;;;;9.00;7.40;;;13.10;99.90;;;;;;5013626;28;20187;-67
2024/03/22 03:24:50;;;;;;;10.03;8.10;;;13.10;99.90;;;;;;5009620;28;20228;-67
2024/03/22 03:27:16;;;;;;;10.20;7.90;;;13.10;99.90;;;;;;5009919;28;20193;-66
2024/03/22 03:29:41;;;;;;;10.40;8.30;;;13.10;99.90;;;;;;5013636;28;20201;-66
2024/03/22 03:32:07;;;;;;;10.60;6.80;;;13.10;99.90;;;;;;5013511;28;20181;-67
2024/03/22 03:34:32;;;;;;;10.07;8.47;;;13.10;99.90;;;;;;5010876;28;20212;-66
2024/03/22 03:37:00;;;;;;;10.00;7.23;;;13.10;99.90;;;;;;5011683;28;20942;-66
2024/03/22 03:39:26;;;;;;;11.33;7.07;;;13.10;99.90;;;;;;5009260;28;20172;-66
2024/03/22 03:41:52;;;;;;;8.50;7.50;;;13.00;99.90;;;;;;5015200;28;20520;-66
2024/03/22 03:44:17;;;;;;;9.60;7.13;;;13.00;99.90;;;;;;5014444;28;20521;-67
2024/03/22 03:46:43;;;;;;;8.43;6.70;;;13.00;99.90;;;;;;5008639;28;20188;-67
2024/03/22 03:49:08;;;;;;;11.50;7.60;;;13.00;99.90;;;;;;5012167;28;20554;-67
2024/03/22 03:51:34;;;;;;;8.00;6.37;;;13.00;99.90;;;;;;5015000;28;20562;-67
2024/03/22 03:53:59;;;;;;;7.73;6.53;;;13.10;99.90;;;;;;5011623;28;20960;-67
2024/03/22 03:56:25;;;;;;;6.67;5.97;;;13.10;99.90;;;;;;5014880;28;20643;-67
2024/03/22 03:58:50;;;;;;;12.20;7.43;;;13.10;99.90;;;;;;5008352;28;20642;-67
2024/03/22 04:01:17;;;;;;;8.47;7.17;;;13.10;99.90;;;;;;5013066;28;20864;-68
2024/03/22 04:03:43;;;;;;;7.90;6.63;;;13.20;99.90;;;;;;5014272;28;20181;-67
2024/03/22 04:06:09;;;;;;;8.00;7.20;;;13.10;99.90;;;;;;5013553;28;20461;-68
2024/03/22 04:08:34;;;;;;;10.97;7.13;;;13.10;99.90;;;;;;5011237;28;20748;-67
2024/03/22 04:11:00;;;;;;;6.50;5.90;;;13.10;99.90;;;;;;5014209;28;20197;-67
2024/03/22 04:13:27;;;;;;;12.30;7.30;;;13.20;99.90;;;;;;5018721;28;20671;-67
2024/03/22 04:15:53;;;;;;;10.30;6.60;;;13.20;99.90;;;;;;5019565;28;20228;-67
2024/03/22 04:18:19;;;;;;;8.10;7.20;;;13.20;99.90;;;;;;5016773;28;20423;-68
2024/03/22 04:21:05;;;;;;;7.67;6.07;;;13.20;99.90;;;;;;5014373;28;20277;-67
2024/03/22 04:23:31;;;;;;;12.20;7.00;;;13.20;99.90;;;;;;5020760;28;20427;-67
2024/03/22 04:26:01;;;;;;;8.23;6.40;;;13.20;99.90;;;;;;5019355;28;20438;-68
2024/03/22 04:28:28;;;;;;;6.63;5.93;;;13.20;99.90;;;;;;5015126;28;20185;-67
2024/03/22 04:31:02;;;;;;;9.97;6.87;;;13.10;99.90;;;;;;5014503;28;20436;-67
2024/03/22 04:33:29;;;;;;;10.37;6.70;;;13.10;99.90;;;;;;5013257;28;20434;-67
2024/03/22 04:35:56;;;;;;;6.67;5.80;;;13.00;99.90;;;;;;5014410;28;20487;-68
2024/03/22 04:38:22;;;;;;;16.80;6.70;;;13.00;99.90;;;;;;5015364;28;20835;-67
2024/03/22 04:40:47;;;;;;;9.30;6.80;;;12.80;99.90;;;;;;5015126;28;20474;-67
2024/03/22 04:43:15;;;;;;;7.10;6.20;;;12.80;99.90;;;;;;5013608;28;20200;-67
2024/03/22 04:45:46;;;;;;;7.20;6.07;;;12.80;99.90;;;;;;5012520;28;20208;-67
2024/03/22 04:48:14;;;;;;;9.70;7.50;;;12.80;99.90;;;;;;5017330;28;20813;-67
2024/03/22 04:50:40;;;;;;;7.70;6.87;;;12.90;99.90;;;;;;5016539;28;20435;-67
2024/03/22 04:53:06;;;;;;;7.93;6.87;;;12.80;99.90;;;;;;5014867;28;20428;-67
2024/03/22 04:55:35;;;;;;;14.83;7.27;;;12.90;99.90;;;;;;5013133;28;20207;-68
2024/03/22 04:58:01;;;;;;;7.97;6.50;;;12.80;99.90;;;;;;5016822;28;20281;-68
2024/03/22 05:00:27;;;;;;;10.07;6.70;;;12.80;99.90;;;;;;5017700;28;20529;-68
2024/03/22 05:02:53;;;;;;;8.20;7.27;;;12.80;99.90;;;;;;5016012;28;20219;-67
2024/03/22 05:05:19;;;;;;;7.60;6.00;;;12.80;99.90;;;;;;5018083;28;21007;-68
2024/03/22 05:07:45;;;;;;;7.87;6.50;;;12.80;99.90;;;;;;5020071;28;20188;-68
2024/03/22 05:10:11;;;;;;;8.43;7.53;;;12.80;99.90;;;;;;5017057;28;20805;-68
2024/03/22 05:12:37;;;;;;;7.93;6.93;;;12.80;99.90;;;;;;5012515;28;20181;-68
2024/03/22 05:15:04;;;;;;;8.30;7.17;;;12.80;99.90;;;;;;5014143;28;20468;-68
2024/03/22 05:17:31;;;;;;;8.23;6.73;;;12.80;99.90;;;;;;5019433;28;20227;-68
2024/03/22 05:20:01;;;;;;;8.90;6.57;;;12.90;99.90;;;;;;5013410;28;20541;-68
2024/03/22 05:22:27;;;;;;;8.03;7.23;;;12.90;99.90;;;;;;5012662;28;20961;-67
2024/03/22 05:24:52;;;;;;;7.77;6.23;;;12.90;99.90;;;;;;5013852;28;20538;-67
2024/03/22 05:27:18;;;;;;;8.77;6.63;;;12.80;99.90;;;;;;5016205;28;20445;-67
2024/03/22 05:29:44;;;;;;;7.50;5.87;;;12.80;99.90;;;;;;5012547;28;20778;-67
2024/03/22 05:32:10;;;;;;;9.07;6.53;;;12.80;99.90;;;;;;5013658;28;20606;-67
2024/03/22 05:34:36;;;;;;;8.50;6.93;;;12.80;99.90;;;;;;5012276;28;20455;-68
2024/03/22 05:37:02;;;;;;;7.50;6.03;;;12.80;99.90;;;;;;5012663;28;20189;-68
2024/03/22 05:39:28;;;;;;;9.23;7.57;;;12.70;99.90;;;;;;5015569;28;20466;-68
2024/03/22 05:41:54;;;;;;;9.47;6.80;;;12.70;99.90;;;;;;5016660;28;20467;-68
2024/03/22 05:44:21;;;;;;;7.70;6.90;;;12.80;99.90;;;;;;5015265;28;20283;-68
2024/03/22 05:46:46;;;;;;;9.97;7.20;;;12.80;99.90;;;;;;5014367;28;20424;-67
2024/03/22 05:49:12;;;;;;;7.30;6.30;;;12.80;99.90;;;;;;5015477;28;22146;-67
2024/03/22 05:51:37;;;;;;;11.60;6.53;;;12.80;99.90;;;;;;5013979;28;20190;-68
2024/03/22 05:54:03;;;;;;;9.40;6.83;;;12.70;99.90;;;;;;5014743;28;20663;-68
2024/03/22 05:56:29;;;;;;;7.23;6.50;;;12.80;99.90;;;;;;5011210;28;20741;-68
2024/03/22 05:58:54;;;;;;;8.67;6.80;;;12.70;99.90;;;;;;5012622;28;20173;-68
2024/03/22 06:01:20;;;;;;;9.10;6.30;;;12.60;99.90;;;;;;5015770;28;20204;-68
2024/03/22 06:03:45;;;;;;;9.97;7.43;;;12.60;99.90;;;;;;5014844;28;20679;-67
2024/03/22 06:06:12;;;;;;;10.07;7.60;;;12.70;99.90;;;;;;5011532;28;20193;-67
2024/03/22 06:08:39;;;;;;;8.80;6.70;;;12.80;99.90;;;;;;5015493;28;20192;-67
2024/03/22 06:11:06;;;;;;;9.00;7.30;;;12.90;99.90;;;;;;5015086;28;20474;-67
2024/03/22 06:13:32;;;;;;;9.00;6.90;;;12.90;99.90;;;;;;5011001;28;20574;-67
2024/03/22 06:15:58;;;;;;;6.90;6.20;;;12.90;99.90;;;;;;5008437;28;20542;-66
2024/03/22 06:18:24;;;;;;;10.30;7.60;;;13.00;99.90;;;;;;5013224;28;20420;-67
2024/03/22 06:20:49;;;;;;;10.60;7.07;;;13.00;99.90;;;;;;5008456;28;20291;-67
2024/03/22 06:23:15;;;;;;;8.40;7.20;;;13.10;99.90;;;;;;5011209;28;20296;-67
2024/03/22 06:25:40;;;;;;;8.33;6.70;;;13.10;99.90;;;;;;5008569;28;20209;-67
2024/03/22 06:28:06;;;;;;;9.03;7.10;;;13.10;99.90;;;;;;5010266;28;20642;-67
2024/03/22 06:30:32;;;;;;;7.83;6.93;;;13.10;99.90;;;;;;5014707;28;20189;-67
2024/03/22 06:32:57;;;;;;;9.47;7.07;;;13.10;99.90;;;;;;5010461;28;20292;-67
2024/03/22 06:35:23;;;;;;;9.57;7.10;;;13.00;99.90;;;;;;5013657;28;20201;-67
2024/03/22 06:37:49;;;;;;;7.90;6.23;;;13.00;99.90;;;;;;5007019;28;20539;-68
2024/03/22 06:40:15;;;;;;;8.53;7.63;;;13.00;99.90;;;;;;5010045;28;20209;-68
2024/03/22 06:42:41;;;;;;;8.23;6.40;;;13.00;99.90;;;;;;5014487;28;20193;-68
2024/03/22 06:45:07;;;;;;;11.10;7.07;;;13.00;99.90;;;;;;5010990;28;20450;-68
2024/03/22 06:47:32;;;;;;;8.07;6.87;;;13.00;99.90;;;;;;5011499;28;20184;-68
2024/03/22 06:49:58;;;;;;;7.47;6.67;;;13.00;99.90;;;;;;5014669;28;20878;-68
2024/03/22 06:52:24;;;;;;;8.83;7.93;;;12.90;99.90;;;;;;5016148;28;20625;-68
2024/03/22 06:54:49;;;;;;;10.10;7.67;;;12.90;99.90;;;;;;5015590;28;20709;-67
2024/03/22 06:57:15;;;;;;;9.50;6.90;;;12.90;99.90;;;;;;5014411;28;20189;-67
2024/03/22 06:59:40;;;;;;;8.87;7.33;;;12.90;99.90;;;;;;5015932;28;20192;-68
2024/03/22 07:02:06;;;;;;;7.70;6.57;;;12.80;99.90;;;;;;5012965;28;20185;-68
2024/03/22 07:04:32;;;;;;;9.10;6.70;;;12.90;99.90;;;;;;5011926;28;20790;-68
2024/03/22 07:06:57;;;;;;;13.63;7.43;;;13.00;99.90;;;;;;5016009;28;20181;-68
2024/03/22 07:09:23;;;;;;;7.73;6.80;;;12.90;99.90;;;;;;5017099;28;20603;-68
2024/03/22 07:11:48;;;;;;;7.63;6.83;;;13.00;99.90;;;;;;5017165;28;20180;-68
2024/03/22 07:14:14;;;;;;;7.60;6.10;;;13.00;99.90;;;;;;5015126;28;20849;-68
2024/03/22 07:16:39;;;;;;;9.33;7.70;;;13.10;99.90;;;;;;5014675;28;20188;-68
2024/03/22 07:19:05;;;;;;;9.50;6.57;;;13.10;99.90;;;;;;5015716;28;20978;-67
2024/03/22 07:21:31;;;;;;;8.47;6.70;;;13.20;99.90;;;;;;5014108;28;20254;-67
2024/03/22 07:23:57;;;;;;;8.97;7.17;;;13.30;99.90;;;;;;5014942;28;20431;-68
2024/03/22 07:26:22;;;;;;;10.07;6.93;;;13.40;99.90;;;;;;5009739;28;20178;-66
2024/03/22 07:28:48;;;;;;;8.23;6.57;;;13.50;99.90;;;;;;5015889;28;20223;-66
2024/03/22 07:31:13;;;;;;;10.20;7.00;;;13.60;99.90;;;;;;5006269;28;20631;-68
2024/03/22 07:33:40;;;;;;;8.00;6.00;;;13.60;99.90;;;;;;5014124;28;20246;-66
2024/03/22 07:36:06;;;;;;;9.83;6.93;;;13.70;99.90;;;;;;5014682;28;20250;-66
2024/03/22 07:38:32;;;;;;;8.10;7.30;;;13.70;99.90;;;;;;5014249;28;20435;-67
2024/03/22 07:40:57;;;;;;;9.30;7.00;;;13.90;99.90;;;;;;5013640;28;20460;-66
2024/03/22 07:43:23;;;;;;;8.47;6.67;;;13.90;99.90;;;;;;5016407;28;21146;-68
2024/03/22 07:45:49;;;;;;;8.40;6.60;;;13.90;99.90;;;;;;5013511;28;20621;-69
2024/03/22 07:48:14;;;;;;;12.23;7.60;;;14.00;99.90;;;;;;5024906;28;20188;-67
2024/03/22 07:50:40;;;;;;;11.90;8.10;;;14.20;99.90;;;;;;5021457;28;20191;-66
2024/03/22 07:53:05;;;;;;;9.03;7.40;;;14.20;99.90;;;;;;5016826;28;20219;-66
2024/03/22 07:55:31;;;;;;;9.40;7.03;;;14.30;99.90;;;;;;5021778;28;20550;-66
2024/03/22 07:57:57;;;;;;;10.00;7.37;;;14.40;99.90;;;;;;5021516;28;20481;-67
2024/03/22 08:00:24;;;;;;;11.63;7.27;;;14.40;99.90;;;;;;5025607;28;20715;-68
2024/03/22 08:02:51;;;;;;;9.87;6.77;;;14.50;99.90;;;;;;5019145;28;20483;-67
2024/03/22 08:05:16;;;;;;;10.00;8.50;;;14.40;99.90;;;;;;5018059;28;20508;-67
2024/03/22 08:07:43;;;;;;;9.27;6.70;;;14.50;99.90;;;;;;5010673;28;20447;-67
2024/03/22 08:10:09;;;;;;;11.03;7.40;;;14.60;99.90;;;;;;5025579;28;20191;-67
2024/03/22 08:12:35;;;;;;;7.67;6.90;;;14.70;99.90;;;;;;5012076;28;20809;-67
2024/03/22 08:15:00;;;;;;;9.07;7.87;;;14.80;99.90;;;;;;5015181;28;20505;-67
2024/03/22 08:17:26;;;;;;;10.13;6.83;;;14.80;99.90;;;;;;5019784;28;20204;-67
2024/03/22 08:19:51;;;;;;;10.67;6.67;;;15.10;99.90;;;;;;5020546;28;20295;-67
2024/03/22 08:22:17;;;;;;;10.50;8.33;;;15.20;99.90;;;;;;5023259;28;20284;-67
2024/03/22 08:24:43;;;;;;;12.17;7.70;;;15.40;99.90;;;;;;5017169;28;20204;-67
2024/03/22 08:27:08;;;;;;;10.40;7.97;;;15.50;99.90;;;;;;5020584;28;20753;-68
2024/03/22 08:29:34;;;;;;;9.50;8.30;;;15.60;99.90;;;;;;5015113;28;20196;-69
2024/03/22 08:32:02;;;;;;;9.90;8.20;;;15.70;99.90;;;;;;5016564;28;20654;-68
2024/03/22 08:34:28;;;;;;;11.70;9.30;;;15.80;99.90;;;;;;5015769;28;20636;-68
2024/03/22 08:36:54;;;;;;;12.53;8.23;;;15.80;99.90;;;;;;5019375;28;20445;-68
2024/03/22 08:39:19;;;;;;;9.67;8.50;;;15.80;99.90;;;;;;5019538;28;20913;-68
2024/03/22 08:41:45;;;;;;;9.57;7.93;;;15.90;99.90;;;;;;5019164;28;20181;-69
2024/03/22 08:44:10;;;;;;;11.00;8.80;;;16.10;99.90;;;;;;5019199;28;20211;-69
2024/03/22 08:46:36;;;;;;;11.23;8.67;;;16.20;99.90;;;;;;5018118;28;20181;-69
2024/03/22 08:49:02;;;;;;;11.23;8.10;;;16.40;99.90;;;;;;5022374;28;20268;-69
2024/03/22 08:51:28;;;;;;;11.63;9.10;;;16.40;99.90;;;;;;5023670;28;20188;-69
2024/03/22 08:53:55;;;;;;;9.83;8.83;;;16.40;99.90;;;;;;5020923;28;20463;-68
2024/03/22 08:56:20;;;;;;;11.40;8.53;;;16.60;99.90;;;;;;5021773;28;20292;-68
2024/03/22 08:58:46;;;;;;;10.13;8.90;;;16.60;99.90;;;;;;5022067;28;20533;-68
2024/03/22 09:01:11;;;;;;;9.80;8.70;;;16.70;99.90;;;;;;5014424;28;20782;-68
2024/03/22 09:03:37;;;;;;;11.97;9.70;;;16.70;99.90;;;;;;5018017;28;20705;-69
2024/03/22 09:06:03;;;;;;;12.80;8.60;;;16.70;99.90;;;;;;5012785;28;20949;-68
2024/03/22 09:08:29;;;;;;;11.00;7.77;;;16.90;99.90;;;;;;5014573;28;20185;-68
2024/03/22 09:10:55;;;;;;;13.93;8.40;;;17.00;99.90;;;;;;5014727;28;20193;-68
2024/03/22 09:13:20;;;;;;;9.33;8.17;;;17.20;99.90;;;;;;5011712;28;20790;-68
2024/03/22 09:15:46;;;;;;;12.80;8.10;;;17.20;99.90;;;;;;5018422;28;20228;-69
2024/03/22 09:18:12;;;;;;;9.30;8.40;;;17.20;99.90;;;;;;5013958;28;20200;-69
2024/03/22 09:20:37;;;;;;;9.20;8.20;;;17.40;99.90;;;;;;5015364;28;20262;-69
2024/03/22 09:23:04;;;;;;;10.20;7.93;;;17.50;99.90;;;;;;5017878;28;20181;-69
2024/03/22 09:25:29;;;;;;;8.20;7.27;;;17.60;99.90;;;;;;5016013;28;20204;-68
2024/03/22 09:27:55;;;;;;;12.50;8.10;;;17.70;99.90;;;;;;5016332;28;20428;-68
2024/03/22 09:30:21;;;;;;;11.70;7.60;;;17.70;99.90;;;;;;5007596;28;20267;-67
2024/03/22 09:32:47;;;;;;;9.03;7.97;;;17.70;99.90;;;;;;5018116;28;20663;-67
2024/03/22 09:35:17;;;;;;;12.53;7.40;;;17.80;99.90;;;;;;5010201;28;20477;-68
2024/03/22 09:37:43;;;;;;;7.10;6.40;;;17.90;99.90;;;;;;5013137;28;20184;-68
2024/03/22 09:40:09;;;;;;;9.17;7.53;;;17.80;99.90;;;;;;5009452;28;20467;-68
2024/03/22 09:42:39;;;;;;;8.93;7.90;;;17.90;99.90;;;;;;5016271;28;20196;-68
2024/03/22 09:45:08;;;;;;;7.17;6.47;;;18.00;99.90;;;;;;5015876;28;20484;-67
2024/03/22 09:47:35;;;;;;;8.03;7.10;;;18.00;99.90;;;;;;5017790;28;20949;-69
2024/03/22 09:50:02;;;;;;;8.47;6.83;;;17.90;99.90;;;;;;5014731;28;20488;-68
2024/03/22 09:52:28;;;;;;;9.40;6.30;;;18.00;99.90;;;;;;5012336;28;20526;-69
2024/03/22 09:54:54;;;;;;;9.73;8.40;;;18.10;99.90;;;;;;5018053;28;20852;-68
2024/03/22 09:57:22;;;;;;;8.83;7.57;;;18.20;99.90;;;;;;5012014;28;20471;-68
2024/03/22 09:59:48;;;;;;;8.73;7.07;;;18.10;99.90;;;;;;5016135;28;20205;-68
2024/03/22 10:02:14;;;;;;;12.20;7.60;;;18.30;99.90;;;;;;5008340;28;20435;-68
2024/03/22 10:04:40;;;;;;;8.83;7.40;;;18.30;99.90;;;;;;5013456;28;20616;-68
2024/03/22 10:07:08;;;;;;;9.17;8.13;;;18.10;99.90;;;;;;5012839;28;20184;-67
2024/03/22 10:09:33;;;;;;;7.73;6.90;;;18.10;99.90;;;;;;5013943;28;20507;-68
2024/03/22 10:11:59;;;;;;;9.80;7.30;;;18.10;99.90;;;;;;5012759;28;20519;-68
2024/03/22 10:14:25;;;;;;;10.57;7.20;;;18.20;99.90;;;;;;5013626;28;20283;-69
2024/03/22 10:16:54;;;;;;;9.03;7.40;;;18.30;99.90;;;;;;5016277;28;20678;-68
2024/03/22 10:19:23;;;;;;;11.47;8.53;;;18.40;99.90;;;;;;5012055;28;20428;-68
2024/03/22 10:22:02;;;;;;;8.97;8.07;;;18.70;99.90;;;;;;5017466;28;20420;-69
2024/03/22 10:24:28;;;;;;;8.90;7.77;;;18.80;99.90;;;;;;5012865;28;20444;-68
2024/03/22 10:26:54;;;;;;;8.23;7.37;;;18.80;99.90;;;;;;5014670;28;20427;-69
2024/03/22 10:29:22;;;;;;;9.47;8.10;;;18.50;99.90;;;;;;5010571;28;20435;-69
2024/03/22 10:31:48;;;;;;;10.03;8.30;;;18.30;99.90;;;;;;5014452;28;20198;-69
2024/03/22 10:34:14;;;;;;;8.87;7.93;;;18.50;99.90;;;;;;5013699;28;20948;-69
2024/03/22 10:36:41;;;;;;;10.30;7.87;;;18.50;99.90;;;;;;5016482;28;20419;-69
2024/03/22 10:39:08;;;;;;;9.53;7.67;;;18.60;99.90;;;;;;5014077;28;20462;-69
2024/03/22 10:41:34;;;;;;;10.20;9.17;;;18.60;99.90;;;;;;5013940;28;20556;-68
2024/03/22 10:43:59;;;;;;;12.03;8.00;;;18.60;99.90;;;;;;5015480;28;20554;-68
2024/03/22 10:46:30;;;;;;;9.77;8.63;;;18.50;99.90;;;;;;5009316;28;20181;-68
2024/03/22 10:48:57;;;;;;;9.43;8.30;;;18.40;99.90;;;;;;5018636;28;20263;-68
2024/03/22 10:51:25;;;;;;;11.10;8.23;;;18.50;99.90;;;;;;5012318;28;20430;-68
2024/03/22 10:53:54;;;;;;;11.00;6.87;;;18.40;99.90;;;;;;5019186;28;21023;-68
2024/03/22 10:56:22;;;;;;;12.17;7.50;;;18.50;99.90;;;;;;5013335;28;20416;-68
2024/03/22 10:58:52;;;;;;;8.43;7.17;;;18.50;99.90;;;;;;5016092;28;20439;-68
2024/03/22 11:01:25;;;;;;;7.40;6.60;;;18.60;99.90;;;;;;5013748;28;20479;-68
2024/03/22 11:03:51;;;;;;;9.07;7.03;;;18.60;99.90;;;;;;5015580;28;20482;-68
2024/03/22 11:06:20;;;;;;;8.93;6.73;;;18.80;99.90;;;;;;5010195;28;21086;-68
2024/03/22 11:08:51;;;;;;;8.03;6.37;;;18.90;99.90;;;;;;5015402;28;20177;-69
2024/03/22 11:11:19;;;;;;;9.50;7.20;;;18.90;99.90;;;;;;5013772;28;20428;-68
2024/03/22 11:13:48;;;;;;;11.10;7.70;;;19.00;99.90;;;;;;5011919;28;20431;-68
2024/03/22 11:16:15;;;;;;;9.27;6.40;;;19.20;99.90;;;;;;5013482;28;20456;-68
2024/03/22 11:18:40;;;;;;;6.90;6.20;;;19.30;99.90;;;;;;5015852;28;20530;-68
2024/03/22 11:21:08;;;;;;;9.13;6.57;;;19.40;99.90;;;;;;5016138;28;20574;-68
2024/03/22 11:23:37;;;;;;;6.97;6.20;;;19.50;99.90;;;;;;5013536;28;20545;-68
2024/03/22 11:26:03;;;;;;;8.30;6.77;;;19.50;99.90;;;;;;5006912;28;20869;-69
2024/03/22 11:28:30;;;;;;;10.33;6.93;;;19.60;99.90;;;;;;5015757;28;20466;-69
2024/03/22 11:30:56;;;;;;;12.43;7.70;;;19.60;99.90;;;;;;5009799;28;20419;-68
2024/03/22 11:33:22;;;;;;;9.60;6.87;;;19.70;99.90;;;;;;5009197;28;20439;-68
2024/03/22 11:35:49;;;;;;;7.87;6.17;;;19.80;99.90;;;;;;5010144;28;20459;-68
2024/03/22 11:38:16;;;;;;;7.10;6.00;;;19.70;99.90;;;;;;5010349;28;20255;-68
2024/03/22 11:40:42;;;;;;;7.83;6.43;;;19.70;99.90;;;;;;5014481;28;20466;-68
2024/03/22 11:43:08;;;;;;;10.40;6.30;;;19.90;99.90;;;;;;5016454;28;20412;-68
2024/03/22 11:45:34;;;;;;;6.53;5.83;;;20.00;99.90;;;;;;5011775;28;20448;-67
2024/03/22 11:48:03;;;;;;;9.50;6.03;;;20.10;99.90;;;;;;5010623;28;20416;-67
2024/03/22 11:50:29;;;;;;;8.20;6.07;;;20.20;99.90;;;;;;5012209;28;21034;-68
2024/03/22 11:52:56;;;;;;;6.80;6.10;;;20.20;99.90;;;;;;5014005;28;20411;-68
2024/03/22 11:55:21;;;;;;;8.40;6.00;;;20.20;99.90;;;;;;5012854;28;20236;-68
2024/03/22 11:57:51;;;;;;;7.40;5.67;;;20.20;99.90;;;;;;5013577;28;20463;-68
2024/03/22 12:00:19;;;;;;;8.40;6.13;;;20.20;99.90;;;;;;5006865;28;20560;-68
2024/03/22 12:02:45;;;;;;;7.10;6.40;;;20.30;99.90;;;;;;5015866;28;20523;-71
2024/03/22 12:05:11;;;;;;;8.23;5.70;;;20.30;99.90;;;;;;5014956;28;20485;-69
2024/03/22 12:07:37;;;;;;;8.20;5.97;;;20.00;99.90;;;;;;5016847;28;21139;-69
2024/03/22 12:10:03;;;;;;;6.33;5.53;;;20.00;99.90;;;;;;5011003;28;20184;-68
2024/03/22 12:12:30;;;;;;;9.97;6.93;;;20.10;99.90;;;;;;5009035;28;20999;-68
2024/03/22 12:14:55;;;;;;;8.93;6.20;;;20.00;99.90;;;;;;5011736;28;20442;-68
2024/03/22 12:17:21;;;;;;;7.40;6.23;;;19.90;99.90;;;;;;5006099;28;20862;-69
2024/03/22 12:19:47;;;;;;;8.73;6.20;;;19.90;99.90;;;;;;5015426;28;20701;-67
2024/03/22 12:22:13;;;;;;;6.10;5.50;;;20.00;99.90;;;;;;5009719;28;20238;-67
2024/03/22 12:24:38;;;;;;;9.13;5.97;;;20.10;99.80;;;;;;5019378;28;20447;-68
2024/03/22 12:27:05;;;;;;;7.40;5.90;;;20.20;99.30;;;;;;5020120;28;20196;-67
2024/03/22 12:29:33;;;;;;;8.80;6.33;;;20.60;99.30;;;;;;5015922;28;20192;-68
2024/03/22 12:32:06;;;;;;;6.23;5.20;;;21.00;99.00;;;;;;5019619;28;20472;-68
2024/03/22 12:34:33;;;;;;;5.77;4.97;;;21.80;99.00;;;;;;5019937;28;21943;-68
2024/03/22 12:36:59;;;;;;;5.30;4.30;;;23.10;96.10;;;;;;5014172;28;20431;-68